Albuquerque, New Mexico
Current Conditions -  °F | °C
As of 6:52 AM on Sunday 23 Nov 2014 (Local Time) from KABQ Reporting Station
Few Clouds Few Clouds  
Wind Chill: 36°   Ceiling: Unl
Heat Index: 43°   Visibility: 10mi
Dew Point: 21°   Wind: 15mph
Humidity: 42%   Direction: 270°W
Pressure: 29.82"   Gusts: NA
Location:  35.08°N, 106.64°W
Report Text: KABQ 231352Z 27013KT 10SM FEW060 FEW110 06/M06 A2982 RMK AO2 SLP070 T00611061
Loading
Personal Weather Stations






























Interactive Weather Map New forecast layout! Learn more

10-Day Weather Forecast

Advertisements
Track Severe Weather on mobile